createdAt,value
2017-12-06T00:01:39.448Z,3.28
2017-12-06T00:04:07.565Z,4.12
2017-12-06T00:06:35.713Z,2.28
2017-12-06T00:09:03.835Z,5.45
2017-12-06T00:11:31.981Z,5.35
2017-12-06T00:14:06.589Z,6.97
2017-12-06T00:16:34.746Z,5.72
2017-12-06T00:19:02.869Z,7.85
2017-12-06T00:21:31.009Z,3.20
2017-12-06T00:23:59.130Z,2.60
2017-12-06T00:26:27.277Z,4.75
2017-12-06T00:28:55.400Z,4.30
2017-12-06T00:31:23.538Z,5.68
2017-12-06T00:33:51.656Z,2.17
2017-12-06T00:36:19.807Z,2.95
2017-12-06T00:38:47.925Z,8.07
2017-12-06T00:41:16.086Z,3.15
2017-12-06T00:43:44.216Z,4.40
2017-12-06T00:46:12.428Z,4.93
2017-12-06T00:48:40.515Z,6.35
2017-12-06T00:51:08.641Z,1.70
2017-12-06T00:53:36.777Z,4.85
2017-12-06T00:56:04.897Z,18.30
2017-12-06T00:58:33.040Z,5.97
2017-12-06T01:01:01.173Z,6.93
2017-12-06T01:03:29.309Z,5.75
2017-12-06T01:05:57.439Z,4.65
2017-12-06T01:08:25.588Z,7.10
2017-12-06T01:10:53.709Z,8.60
2017-12-06T01:13:21.861Z,5.87
2017-12-06T01:15:49.981Z,3.58
2017-12-06T01:18:18.134Z,3.87
2017-12-06T01:20:46.262Z,7.10
2017-12-06T01:23:14.414Z,2.67
2017-12-06T01:25:42.538Z,13.52
2017-12-06T01:28:10.690Z,4.03
2017-12-06T01:30:38.810Z,5.00
2017-12-06T01:33:06.949Z,3.65
2017-12-06T01:35:35.847Z,6.62
2017-12-06T01:38:03.989Z,4.07
2017-12-06T01:40:32.116Z,2.50
2017-12-06T01:43:00.265Z,10.02
2017-12-06T01:45:28.388Z,2.55
2017-12-06T01:47:56.534Z,1.87
2017-12-06T01:50:24.660Z,3.33
2017-12-06T01:52:52.813Z,7.60
2017-12-06T01:55:20.942Z,5.20
2017-12-06T01:57:49.085Z,2.90
2017-12-06T02:00:17.234Z,7.72
2017-12-06T02:02:45.378Z,3.50
2017-12-06T02:05:13.501Z,3.65
2017-12-06T02:07:41.649Z,4.05
2017-12-06T02:10:09.770Z,5.93
2017-12-06T02:12:37.897Z,6.75
2017-12-06T02:15:06.042Z,5.43
2017-12-06T02:17:34.173Z,3.72
2017-12-06T02:20:02.390Z,3.70
2017-12-06T02:22:30.481Z,2.60
2017-12-06T02:24:58.633Z,4.15
2017-12-06T02:27:26.755Z,4.35
2017-12-06T02:29:54.901Z,4.47
2017-12-06T02:32:23.022Z,3.92
2017-12-06T02:34:51.169Z,6.68
2017-12-06T02:37:19.295Z,3.17
2017-12-06T02:39:59.143Z,5.20
2017-12-06T02:42:39.011Z,3.67
2017-12-06T02:45:18.929Z,4.03
2017-12-06T02:47:47.060Z,7.65
2017-12-06T02:50:15.218Z,8.55
2017-12-06T02:52:43.338Z,4.22
2017-12-06T02:55:12.252Z,4.22
2017-12-06T02:57:40.378Z,5.43
2017-12-06T03:00:08.539Z,5.32
2017-12-06T03:02:36.670Z,5.72
2017-12-06T03:05:04.818Z,9.32
2017-12-06T03:07:32.950Z,6.75
2017-12-06T03:10:01.111Z,6.43
2017-12-06T03:12:29.243Z,14.20
2017-12-06T03:14:57.394Z,11.70
2017-12-06T03:17:25.518Z,8.55
2017-12-06T03:19:53.662Z,9.07
2017-12-06T03:22:22.548Z,9.18
2017-12-06T03:24:50.701Z,10.00
2017-12-06T03:27:18.817Z,8.75
2017-12-06T03:29:46.977Z,8.65
2017-12-06T03:32:15.102Z,10.85
2017-12-06T03:34:43.260Z,11.93
2017-12-06T03:37:11.391Z,9.52
2017-12-06T03:39:40.301Z,8.23
2017-12-06T03:42:08.434Z,10.57
2017-12-06T03:44:36.600Z,11.68
2017-12-06T03:47:04.720Z,7.70
2017-12-06T03:49:32.841Z,7.60
2017-12-06T03:52:00.981Z,7.97
2017-12-06T03:54:29.102Z,9.77
2017-12-06T03:56:57.253Z,9.77
2017-12-06T03:59:25.377Z,11.32
2017-12-06T04:01:53.530Z,8.15
2017-12-06T04:04:21.653Z,8.65
2017-12-06T04:06:49.802Z,10.88
2017-12-06T04:09:17.917Z,8.73
2017-12-06T04:11:46.070Z,13.13
2017-12-06T04:14:14.194Z,14.48
2017-12-06T04:16:42.343Z,12.13
2017-12-06T04:19:10.481Z,19.55
2017-12-06T04:21:38.638Z,10.45
2017-12-06T04:24:06.773Z,14.52
2017-12-06T04:26:34.920Z,18.55
2017-12-06T04:29:03.053Z,13.70
2017-12-06T04:31:31.204Z,16.20
2017-12-06T04:33:59.332Z,13.50
2017-12-06T04:36:27.489Z,16.77
2017-12-06T04:38:55.621Z,16.17
2017-12-06T04:41:23.780Z,16.48
2017-12-06T04:43:51.914Z,15.85
2017-12-06T04:46:20.071Z,19.40
2017-12-06T04:48:48.200Z,17.92
2017-12-06T04:51:16.359Z,15.30
2017-12-06T04:53:44.488Z,18.20
2017-12-06T04:56:12.656Z,18.75
2017-12-06T04:58:40.792Z,20.92
2017-12-06T05:01:08.960Z,16.23
2017-12-06T05:03:37.098Z,19.05
2017-12-06T05:06:05.257Z,17.98
2017-12-06T05:08:33.386Z,19.45
2017-12-06T05:11:01.512Z,29.42
2017-12-06T05:13:29.667Z,15.60
2017-12-06T05:15:57.801Z,16.37
2017-12-06T05:18:25.990Z,15.88
2017-12-06T05:20:54.118Z,17.33
2017-12-06T05:23:22.246Z,16.60
2017-12-06T05:25:50.402Z,14.48
2017-12-06T05:28:18.536Z,17.33
2017-12-06T05:30:46.693Z,15.95
2017-12-06T05:33:14.821Z,16.58
2017-12-06T05:35:42.974Z,15.82
2017-12-06T05:38:11.109Z,15.25
2017-12-06T05:40:39.270Z,17.12
2017-12-06T05:43:08.181Z,19.87
2017-12-06T05:45:36.364Z,16.25
2017-12-06T05:48:04.485Z,29.15
2017-12-06T05:50:32.670Z,21.12
2017-12-06T05:53:00.797Z,19.75
2017-12-06T05:55:28.965Z,19.37
2017-12-06T05:57:57.094Z,19.67
2017-12-06T06:00:25.247Z,17.45
2017-12-06T06:02:53.384Z,20.55
2017-12-06T06:05:21.533Z,17.90
2017-12-06T06:07:49.656Z,18.20
2017-12-06T06:10:17.833Z,18.92
2017-12-06T06:12:45.991Z,19.87
2017-12-06T06:15:14.190Z,24.12
2017-12-06T06:17:42.325Z,19.87
2017-12-06T06:20:10.486Z,21.25
2017-12-06T06:22:38.640Z,21.77
2017-12-06T06:25:07.550Z,22.55
2017-12-06T06:27:35.705Z,21.70
2017-12-06T06:30:04.607Z,19.80
2017-12-06T06:32:32.771Z,23.02
2017-12-06T06:35:01.678Z,20.90
2017-12-06T06:37:29.830Z,19.02
2017-12-06T06:39:58.724Z,21.10
2017-12-06T06:42:26.872Z,20.42
2017-12-06T06:44:55.011Z,22.00
2017-12-06T06:47:23.170Z,24.35
2017-12-06T06:49:51.298Z,24.15
2017-12-06T06:52:19.457Z,20.35
2017-12-06T06:54:47.581Z,22.20
2017-12-06T06:57:15.735Z,23.90
2017-12-06T06:59:43.880Z,21.23
2017-12-06T07:02:12.036Z,23.12
2017-12-06T07:04:40.168Z,21.85
2017-12-06T07:07:08.358Z,20.25
2017-12-06T07:09:36.487Z,22.50
2017-12-06T07:12:04.672Z,22.92
2017-12-06T07:14:33.561Z,26.98
2017-12-06T07:17:01.718Z,24.80
2017-12-06T07:19:29.868Z,24.95
2017-12-06T07:21:58.041Z,24.83
2017-12-06T07:24:26.182Z,24.40
2017-12-06T07:26:55.083Z,25.00
2017-12-06T07:29:23.244Z,25.05
2017-12-06T07:31:51.398Z,25.27
2017-12-06T07:34:20.318Z,26.65
2017-12-06T07:36:48.460Z,24.55
2017-12-06T07:39:17.378Z,24.05
2017-12-06T07:41:46.281Z,26.08
2017-12-06T07:44:14.438Z,24.83
2017-12-06T07:46:42.564Z,24.73
2017-12-06T07:49:10.726Z,22.13
2017-12-06T07:51:38.855Z,20.37
2017-12-06T07:54:07.012Z,19.30
2017-12-06T07:56:35.153Z,27.23
2017-12-06T07:59:03.344Z,21.70
2017-12-06T08:01:31.565Z,22.25
2017-12-06T08:03:59.772Z,22.62
2017-12-06T08:06:27.913Z,26.05
2017-12-06T08:08:56.106Z,18.45
2017-12-06T08:11:24.255Z,21.12
2017-12-06T08:13:52.385Z,17.48
2017-12-06T08:16:20.592Z,21.50
2017-12-06T08:18:48.755Z,16.30
2017-12-06T08:21:17.681Z,19.45
2017-12-06T08:23:45.822Z,18.80
2017-12-06T08:26:14.744Z,18.73
2017-12-06T08:28:42.876Z,18.60
2017-12-06T08:31:11.831Z,18.35
2017-12-06T08:33:41.095Z,22.60
2017-12-06T08:36:16.430Z,20.50
2017-12-06T08:38:44.589Z,23.52
2017-12-06T08:41:12.818Z,18.58
2017-12-06T08:43:40.945Z,20.98
2017-12-06T08:46:09.108Z,21.90
2017-12-06T08:48:38.014Z,19.27
2017-12-06T08:51:06.187Z,23.10
2017-12-06T08:53:34.317Z,21.62
2017-12-06T08:56:02.501Z,21.60
2017-12-06T08:58:30.654Z,17.95
2017-12-06T09:00:58.860Z,19.42
2017-12-06T09:03:27.773Z,19.67
2017-12-06T09:05:55.959Z,18.00
2017-12-06T09:08:24.119Z,18.05
2017-12-06T09:10:52.435Z,18.48
2017-12-06T09:13:20.616Z,16.87
2017-12-06T09:15:48.795Z,22.60
2017-12-06T09:18:16.979Z,19.10
2017-12-06T09:20:45.285Z,18.70
2017-12-06T09:23:14.298Z,16.90
2017-12-06T09:25:42.512Z,15.98
2017-12-06T09:28:10.775Z,16.23
2017-12-06T09:30:38.973Z,15.18
2017-12-06T09:33:07.201Z,13.02
2017-12-06T09:35:35.405Z,18.12
2017-12-06T09:38:03.698Z,18.70
2017-12-06T09:40:31.911Z,13.88
2017-12-06T09:43:00.081Z,12.05
2017-12-06T09:45:28.987Z,15.05
2017-12-06T09:47:57.139Z,11.85
2017-12-06T09:50:26.044Z,12.45
2017-12-06T09:52:54.206Z,11.60
2017-12-06T09:55:23.110Z,12.32
2017-12-06T09:57:51.277Z,16.77
2017-12-06T10:00:20.173Z,14.68
2017-12-06T10:02:48.340Z,14.45
2017-12-06T10:05:17.268Z,18.23
2017-12-06T10:07:45.429Z,20.08
2017-12-06T10:10:13.579Z,15.48
2017-12-06T10:12:41.740Z,39.25
2017-12-06T10:15:09.876Z,12.82
2017-12-06T10:17:38.045Z,18.17
2017-12-06T10:20:06.188Z,13.38
2017-12-06T10:22:34.360Z,10.20
2017-12-06T10:25:02.523Z,15.25
2017-12-06T10:27:31.455Z,12.30
2017-12-06T10:29:59.668Z,11.43
2017-12-06T10:32:27.834Z,13.23
2017-12-06T10:34:55.973Z,12.23
2017-12-06T10:37:24.103Z,14.43
2017-12-06T10:39:53.026Z,12.88
2017-12-06T10:42:21.150Z,13.52
2017-12-06T10:44:49.316Z,14.52
2017-12-06T10:47:17.448Z,11.45
2017-12-06T10:49:45.576Z,16.25
2017-12-06T10:52:13.729Z,12.90
2017-12-06T10:54:41.856Z,11.90
2017-12-06T10:57:10.015Z,15.40
2017-12-06T10:59:38.149Z,12.18
2017-12-06T11:02:06.300Z,11.40
2017-12-06T11:04:34.431Z,12.20
2017-12-06T11:07:03.353Z,21.08
2017-12-06T11:09:31.485Z,12.93
2017-12-06T11:12:00.400Z,11.50
2017-12-06T11:14:28.533Z,11.77
2017-12-06T11:16:56.687Z,10.10
2017-12-06T11:19:24.811Z,10.15
2017-12-06T11:21:52.958Z,8.65
2017-12-06T11:24:21.087Z,13.18
2017-12-06T11:26:49.251Z,16.33
2017-12-06T11:29:17.424Z,12.40
2017-12-06T11:31:45.576Z,8.90
2017-12-06T11:34:13.709Z,12.15
2017-12-06T11:36:41.864Z,13.38
2017-12-06T11:39:09.999Z,12.13
2017-12-06T11:41:38.144Z,10.30
2017-12-06T11:44:06.289Z,14.45
2017-12-06T11:46:34.441Z,9.73
2017-12-06T11:49:02.574Z,11.12
2017-12-06T11:51:30.733Z,11.75
2017-12-06T11:53:58.850Z,9.70
2017-12-06T11:56:27.018Z,11.25
2017-12-06T11:58:55.140Z,10.32
2017-12-06T12:01:23.289Z,11.05
2017-12-06T12:03:51.405Z,9.63
2017-12-06T12:06:19.558Z,9.02
2017-12-06T12:08:47.689Z,10.35
2017-12-06T12:11:15.813Z,10.20
2017-12-06T12:13:43.965Z,10.45
2017-12-06T12:16:12.081Z,10.05
2017-12-06T12:18:40.246Z,11.25
2017-12-06T12:21:08.375Z,10.50
2017-12-06T12:23:36.534Z,10.25
2017-12-06T12:26:04.668Z,8.73
2017-12-06T12:28:32.815Z,10.32
2017-12-06T12:31:00.947Z,9.75
2017-12-06T12:33:29.096Z,9.60
2017-12-06T12:35:57.222Z,6.68
2017-12-06T12:38:25.375Z,12.35
2017-12-06T12:40:53.500Z,7.82
2017-12-06T12:43:21.649Z,10.10
2017-12-06T12:45:53.207Z,7.87
2017-12-06T12:48:21.357Z,9.05
2017-12-06T12:50:49.478Z,8.52
2017-12-06T12:53:17.630Z,8.73
2017-12-06T12:55:45.747Z,8.75
2017-12-06T12:58:13.893Z,8.82
2017-12-06T13:00:42.026Z,7.10
2017-12-06T13:03:10.173Z,7.78
2017-12-06T13:05:38.298Z,9.27
2017-12-06T13:08:06.459Z,7.93
2017-12-06T13:10:34.585Z,7.87
2017-12-06T13:13:02.742Z,7.68
2017-12-06T13:15:31.632Z,11.50
2017-12-06T13:17:59.790Z,10.82
2017-12-06T13:20:27.928Z,11.18
2017-12-06T13:22:56.109Z,10.18
2017-12-06T13:25:24.229Z,7.47
2017-12-06T13:27:52.383Z,7.82
2017-12-06T13:30:20.508Z,8.27
2017-12-06T13:32:48.666Z,7.43
2017-12-06T13:35:16.782Z,6.50
2017-12-06T13:37:44.907Z,7.25
2017-12-06T13:40:13.076Z,8.02
2017-12-06T13:42:41.961Z,8.77
2017-12-06T13:45:10.109Z,8.52
2017-12-06T13:47:38.250Z,6.55
2017-12-06T13:50:06.437Z,6.97
2017-12-06T13:52:34.568Z,6.40
2017-12-06T13:55:02.727Z,14.60
2017-12-06T13:57:31.618Z,7.00
2017-12-06T14:00:00.532Z,6.70
2017-12-06T14:02:28.705Z,8.73
2017-12-06T14:04:56.840Z,7.40
2017-12-06T14:07:24.979Z,8.77
2017-12-06T14:09:53.137Z,7.10
2017-12-06T14:12:21.264Z,6.95
2017-12-06T14:14:49.418Z,7.57
2017-12-06T14:17:17.553Z,12.50
2017-12-06T14:19:45.713Z,7.22
2017-12-06T14:22:14.063Z,9.10
2017-12-06T14:24:42.233Z,7.15
2017-12-06T14:27:10.359Z,6.50
2017-12-06T14:29:38.513Z,7.12
2017-12-06T14:32:06.633Z,7.07
2017-12-06T14:34:34.811Z,12.07
2017-12-06T14:37:02.937Z,7.28
2017-12-06T14:39:31.104Z,9.02
2017-12-06T14:41:59.236Z,12.20
2017-12-06T14:44:27.389Z,6.43
2017-12-06T14:46:55.516Z,8.23
2017-12-06T14:49:23.658Z,7.10
2017-12-06T14:51:51.810Z,9.15
2017-12-06T14:54:19.958Z,7.25
2017-12-06T14:56:48.082Z,6.97
2017-12-06T14:59:16.228Z,7.65
2017-12-06T15:01:44.357Z,6.80
2017-12-06T15:04:13.298Z,6.32
2017-12-06T15:06:41.522Z,9.10
2017-12-06T15:09:10.609Z,11.38
2017-12-06T15:11:38.823Z,7.20
2017-12-06T15:14:07.138Z,7.03
2017-12-06T15:16:35.354Z,9.98
2017-12-06T15:19:03.557Z,7.93
2017-12-06T15:21:31.730Z,7.47
2017-12-06T15:23:59.889Z,6.37
2017-12-06T15:26:28.057Z,6.20
2017-12-06T15:28:56.301Z,7.75
2017-12-06T15:31:24.500Z,6.55
2017-12-06T15:33:52.617Z,5.65
2017-12-06T15:36:20.786Z,5.47
2017-12-06T15:38:48.930Z,8.38
2017-12-06T15:41:17.122Z,5.07
2017-12-06T15:43:45.288Z,10.77
2017-12-06T15:46:13.433Z,6.07
2017-12-06T15:48:42.336Z,5.47
2017-12-06T15:51:10.484Z,7.35
2017-12-06T15:53:38.671Z,12.00
2017-12-06T15:56:07.590Z,7.87
2017-12-06T15:58:35.724Z,5.62
2017-12-06T16:01:03.891Z,6.00
2017-12-06T16:03:32.018Z,9.73
2017-12-06T16:06:00.169Z,7.05
2017-12-06T16:08:28.304Z,5.32
2017-12-06T16:10:56.454Z,5.37
2017-12-06T16:13:24.584Z,7.12
2017-12-06T16:15:52.805Z,7.57
2017-12-06T16:18:21.141Z,7.55
2017-12-06T16:20:49.271Z,5.30
2017-12-06T16:23:17.396Z,7.15
2017-12-06T16:25:45.594Z,6.15
2017-12-06T16:28:13.822Z,5.37
2017-12-06T16:30:42.009Z,4.80
2017-12-06T16:33:10.138Z,6.03
2017-12-06T16:35:49.993Z,6.62
2017-12-06T16:38:18.135Z,4.50
2017-12-06T16:40:46.261Z,9.52
2017-12-06T16:43:15.196Z,6.50
2017-12-06T16:45:43.329Z,5.22
2017-12-06T16:48:12.258Z,5.50
2017-12-06T16:50:40.384Z,5.80
2017-12-06T16:53:09.344Z,5.35
2017-12-06T16:55:37.495Z,5.45
2017-12-06T16:58:05.687Z,7.57
2017-12-06T17:00:33.809Z,4.53
2017-12-06T17:03:01.981Z,4.57
2017-12-06T17:05:30.983Z,5.20
2017-12-06T17:07:59.143Z,4.95
2017-12-06T17:10:27.330Z,5.15
2017-12-06T17:12:55.486Z,4.43
2017-12-06T17:15:24.436Z,6.95
2017-12-06T17:17:52.634Z,5.05
2017-12-06T17:20:20.779Z,7.93
2017-12-06T17:22:48.984Z,4.35
2017-12-06T17:25:17.254Z,4.65
2017-12-06T17:27:45.483Z,8.43
2017-12-06T17:30:25.502Z,7.45
2017-12-06T17:32:54.601Z,5.85
2017-12-06T17:35:22.860Z,9.82
2017-12-06T17:37:51.101Z,4.50
2017-12-06T17:40:19.234Z,4.03
2017-12-06T17:42:47.519Z,4.00
2017-12-06T17:45:16.288Z,5.68
2017-12-06T17:47:44.624Z,4.25
2017-12-06T17:50:25.100Z,7.12
2017-12-06T17:52:55.065Z,7.47
2017-12-06T17:55:24.123Z,4.53
2017-12-06T17:57:52.846Z,5.70
2017-12-06T18:00:21.653Z,3.70
2017-12-06T18:02:50.174Z,3.78
2017-12-06T18:05:18.496Z,6.07
2017-12-06T18:07:47.492Z,7.22
2017-12-06T18:10:16.063Z,5.53
2017-12-06T18:12:44.231Z,4.05
2017-12-06T18:15:14.186Z,3.85
2017-12-06T18:17:42.512Z,6.62
2017-12-06T18:20:12.489Z,3.75
2017-12-06T18:22:41.257Z,6.72
2017-12-06T18:25:09.782Z,7.15
2017-12-06T18:27:38.304Z,4.00
2017-12-06T18:30:06.831Z,4.45
2017-12-06T18:32:36.583Z,5.65
2017-12-06T18:35:04.872Z,4.87
2017-12-06T18:37:33.038Z,4.10
2017-12-06T18:40:01.202Z,3.95
2017-12-06T18:42:29.493Z,3.30
2017-12-06T18:44:57.799Z,3.80
2017-12-06T18:47:26.326Z,6.22
2017-12-06T18:49:54.516Z,4.07
2017-12-06T18:52:23.785Z,4.20
2017-12-06T18:54:52.493Z,5.93
2017-12-06T18:57:21.949Z,7.80
2017-12-06T18:59:50.611Z,4.93
2017-12-06T19:02:19.026Z,5.95
2017-12-06T19:04:47.478Z,5.45
2017-12-06T19:07:16.168Z,3.72
2017-12-06T19:09:50.455Z,4.45
2017-12-06T19:12:18.687Z,4.10
2017-12-06T19:14:47.108Z,3.53
2017-12-06T19:17:16.315Z,4.82
2017-12-06T19:19:46.825Z,3.65
2017-12-06T19:22:15.916Z,4.20
2017-12-06T19:24:44.221Z,11.38
2017-12-06T19:27:12.349Z,3.83
2017-12-06T19:29:40.520Z,6.65
2017-12-06T19:32:08.694Z,4.22
2017-12-06T19:34:36.862Z,4.00
2017-12-06T19:37:05.300Z,4.68
2017-12-06T19:39:33.641Z,4.30
2017-12-06T19:42:01.785Z,4.97
2017-12-06T19:44:30.695Z,5.12
2017-12-06T19:46:58.845Z,4.07
2017-12-06T19:49:27.127Z,5.37
2017-12-06T19:51:55.285Z,5.00
2017-12-06T19:54:23.427Z,4.53
2017-12-06T19:56:52.349Z,6.70
2017-12-06T19:59:20.480Z,4.90
2017-12-06T20:01:48.748Z,7.95
2017-12-06T20:04:16.964Z,5.40
2017-12-06T20:06:45.161Z,6.22
2017-12-06T20:09:13.285Z,4.43
2017-12-06T20:11:41.432Z,4.65
2017-12-06T20:14:09.959Z,5.22
2017-12-06T20:16:38.189Z,5.12
2017-12-06T20:19:06.326Z,5.00
2017-12-06T20:21:34.500Z,4.30
2017-12-06T20:24:02.740Z,4.28
2017-12-06T20:26:30.964Z,3.12
2017-12-06T20:28:59.205Z,8.48
2017-12-06T20:31:27.537Z,4.60
2017-12-06T20:33:56.039Z,5.97
2017-12-06T20:36:24.873Z,2.83
2017-12-06T20:38:53.286Z,4.25
2017-12-06T20:41:21.478Z,3.35
2017-12-06T20:43:49.650Z,5.72
2017-12-06T20:46:17.872Z,4.50
2017-12-06T20:48:46.048Z,4.47
2017-12-06T20:51:14.373Z,3.80
2017-12-06T20:53:42.586Z,3.72
2017-12-06T20:56:10.785Z,3.33
2017-12-06T20:58:38.969Z,4.28
2017-12-06T21:01:08.160Z,5.05
2017-12-06T21:03:36.472Z,6.43
2017-12-06T21:06:04.607Z,5.65
2017-12-06T21:08:32.840Z,5.57
2017-12-06T21:11:00.967Z,5.45
2017-12-06T21:13:29.450Z,4.85
2017-12-06T21:15:57.636Z,6.55
2017-12-06T21:18:25.892Z,8.02
2017-12-06T21:20:54.143Z,6.22
2017-12-06T21:23:22.472Z,8.10
2017-12-06T21:25:50.634Z,6.95
2017-12-06T21:28:18.785Z,8.32
2017-12-06T21:30:46.985Z,6.75
2017-12-06T21:33:15.134Z,9.02
2017-12-06T21:35:43.283Z,7.95
2017-12-06T21:38:11.493Z,7.45
2017-12-06T21:40:39.631Z,7.82
2017-12-06T21:43:07.780Z,8.18
2017-12-06T21:45:35.924Z,9.30
2017-12-06T21:48:04.086Z,7.35
2017-12-06T21:50:32.214Z,9.50
2017-12-06T21:53:00.384Z,9.77
2017-12-06T21:55:29.279Z,6.60
2017-12-06T21:57:57.494Z,6.87
2017-12-06T22:00:25.702Z,8.80
2017-12-06T22:02:53.956Z,7.95
2017-12-06T22:05:22.180Z,7.25
2017-12-06T22:07:50.328Z,9.40
2017-12-06T22:10:18.533Z,6.18
2017-12-06T22:12:46.705Z,9.90
2017-12-06T22:15:14.834Z,6.90
2017-12-06T22:17:43.014Z,9.13
2017-12-06T22:20:11.167Z,6.57
2017-12-06T22:22:39.373Z,7.37
2017-12-06T22:25:07.572Z,6.78
2017-12-06T22:27:35.739Z,9.60
2017-12-06T22:30:03.898Z,6.57
2017-12-06T22:32:32.037Z,6.57
2017-12-06T22:35:00.209Z,8.90
2017-12-06T22:37:28.336Z,5.53
2017-12-06T22:39:57.260Z,6.72
2017-12-06T22:42:25.393Z,7.75
2017-12-06T22:45:05.293Z,7.75
2017-12-06T22:47:33.417Z,5.40
2017-12-06T22:50:01.590Z,6.68
2017-12-06T22:52:29.717Z,5.72
2017-12-06T22:54:57.860Z,4.80
2017-12-06T22:57:25.989Z,5.62
2017-12-06T22:59:54.154Z,5.50
2017-12-06T23:02:22.337Z,5.20
2017-12-06T23:04:50.492Z,8.77
2017-12-06T23:07:18.618Z,5.55
2017-12-06T23:09:46.775Z,9.30
2017-12-06T23:12:14.893Z,5.53
2017-12-06T23:14:43.044Z,6.12
2017-12-06T23:17:11.161Z,5.80
2017-12-06T23:19:39.322Z,5.07
2017-12-06T23:22:07.443Z,5.35
2017-12-06T23:24:35.595Z,5.65
2017-12-06T23:27:03.721Z,5.15
2017-12-06T23:29:31.866Z,6.00
2017-12-06T23:31:59.990Z,6.93
2017-12-06T23:34:28.137Z,5.05
2017-12-06T23:36:56.286Z,7.03
2017-12-06T23:39:25.205Z,5.18
2017-12-06T23:41:53.321Z,6.05
2017-12-06T23:44:21.487Z,7.15
2017-12-06T23:46:49.611Z,5.68
2017-12-06T23:49:17.764Z,6.20
2017-12-06T23:51:45.881Z,5.50
2017-12-06T23:54:14.006Z,6.45
2017-12-06T23:56:42.917Z,5.60
2017-12-06T23:59:11.042Z,8.57
